sensor_id;sensor_type;location;lat;lon;timestamp;P1;durP1;ratioP1;P2;durP2;ratioP2
12118;SDS011;6123;48.864;9.200;2022-10-23T00:01:29;5.30;;;3.40;;
12118;SDS011;6123;48.864;9.200;2022-10-23T00:04:00;4.82;;;3.13;;
12118;SDS011;6123;48.864;9.200;2022-10-23T00:06:28;3.83;;;3.33;;
12118;SDS011;6123;48.864;9.200;2022-10-23T00:08:59;4.57;;;3.78;;
12118;SDS011;6123;48.864;9.200;2022-10-23T00:11:28;6.60;;;3.40;;
12118;SDS011;6123;48.864;9.200;2022-10-23T00:13:55;3.97;;;3.20;;
12118;SDS011;6123;48.864;9.200;2022-10-23T00:16:23;3.65;;;3.35;;
12118;SDS011;6123;48.864;9.200;2022-10-23T00:18:48;3.45;;;3.15;;
12118;SDS011;6123;48.864;9.200;2022-10-23T00:21:14;5.20;;;3.13;;
12118;SDS011;6123;48.864;9.200;2022-10-23T00:23:41;3.33;;;3.00;;
12118;SDS011;6123;48.864;9.200;2022-10-23T00:26:08;6.15;;;3.42;;
12118;SDS011;6123;48.864;9.200;2022-10-23T00:28:37;5.35;;;3.65;;
12118;SDS011;6123;48.864;9.200;2022-10-23T00:31:04;5.72;;;3.50;;
12118;SDS011;6123;48.864;9.200;2022-10-23T00:33:32;4.97;;;2.88;;
12118;SDS011;6123;48.864;9.200;2022-10-23T00:35:58;3.30;;;2.97;;
12118;SDS011;6123;48.864;9.200;2022-10-23T00:38:24;5.10;;;3.33;;
12118;SDS011;6123;48.864;9.200;2022-10-23T00:40:51;4.97;;;3.00;;
12118;SDS011;6123;48.864;9.200;2022-10-23T00:43:18;3.78;;;3.05;;
12118;SDS011;6123;48.864;9.200;2022-10-23T00:45:46;3.75;;;3.13;;
12118;SDS011;6123;48.864;9.200;2022-10-23T00:48:12;8.15;;;3.53;;
12118;SDS011;6123;48.864;9.200;2022-10-23T00:50:39;3.97;;;3.50;;
12118;SDS011;6123;48.864;9.200;2022-10-23T00:53:07;4.32;;;3.92;;
12118;SDS011;6123;48.864;9.200;2022-10-23T00:55:35;3.60;;;3.30;;
12118;SDS011;6123;48.864;9.200;2022-10-23T00:58:05;4.75;;;3.75;;
12118;SDS011;6123;48.864;9.200;2022-10-23T01:00:53;8.75;;;4.28;;
12118;SDS011;6123;48.864;9.200;2022-10-23T01:03:21;5.88;;;3.20;;
12118;SDS011;6123;48.864;9.200;2022-10-23T01:05:53;3.92;;;2.95;;
12118;SDS011;6123;48.864;9.200;2022-10-23T01:11:12;5.32;;;3.55;;
12118;SDS011;6123;48.864;9.200;2022-10-23T01:21:54;4.68;;;4.18;;
12118;SDS011;6123;48.864;9.200;2022-10-23T01:32:20;7.75;;;5.00;;
12118;SDS011;6123;48.864;9.200;2022-10-23T01:35:00;7.30;;;4.47;;
12118;SDS011;6123;48.864;9.200;2022-10-23T01:37:38;6.38;;;4.70;;
12118;SDS011;6123;48.864;9.200;2022-10-23T01:40:08;4.65;;;4.18;;
12118;SDS011;6123;48.864;9.200;2022-10-23T01:42:43;6.90;;;4.63;;
12118;SDS011;6123;48.864;9.200;2022-10-23T01:45:18;5.43;;;4.30;;
12118;SDS011;6123;48.864;9.200;2022-10-23T01:47:51;4.65;;;3.97;;
12118;SDS011;6123;48.864;9.200;2022-10-23T01:50:21;5.28;;;4.65;;
12118;SDS011;6123;48.864;9.200;2022-10-23T01:52:50;4.68;;;4.07;;
12118;SDS011;6123;48.864;9.200;2022-10-23T01:55:16;4.55;;;3.95;;
12118;SDS011;6123;48.864;9.200;2022-10-23T01:57:44;7.53;;;5.93;;
12118;SDS011;6123;48.864;9.200;2022-10-23T02:00:12;6.50;;;4.50;;
12118;SDS011;6123;48.864;9.200;2022-10-23T02:02:42;4.57;;;4.18;;
12118;SDS011;6123;48.864;9.200;2022-10-23T02:05:15;5.65;;;3.85;;
12118;SDS011;6123;48.864;9.200;2022-10-23T02:07:47;5.95;;;4.32;;
12118;SDS011;6123;48.864;9.200;2022-10-23T02:10:13;5.82;;;4.00;;
12118;SDS011;6123;48.864;9.200;2022-10-23T02:20:27;4.93;;;3.63;;
12118;SDS011;6123;48.864;9.200;2022-10-23T02:28:18;6.63;;;5.05;;
12118;SDS011;6123;48.864;9.200;2022-10-23T02:30:48;7.05;;;4.05;;
12118;SDS011;6123;48.864;9.200;2022-10-23T02:33:14;4.00;;;3.10;;
12118;SDS011;6123;48.864;9.200;2022-10-23T02:35:41;4.15;;;3.55;;
12118;SDS011;6123;48.864;9.200;2022-10-23T02:38:31;4.45;;;3.65;;
12118;SDS011;6123;48.864;9.200;2022-10-23T02:46:35;4.38;;;3.60;;
12118;SDS011;6123;48.864;9.200;2022-10-23T02:49:18;4.38;;;3.45;;
12118;SDS011;6123;48.864;9.200;2022-10-23T02:57:08;4.05;;;3.65;;
12118;SDS011;6123;48.864;9.200;2022-10-23T03:00:01;4.10;;;3.67;;
12118;SDS011;6123;48.864;9.200;2022-10-23T03:02:40;3.58;;;3.28;;
12118;SDS011;6123;48.864;9.200;2022-10-23T03:05:20;5.25;;;3.35;;
12118;SDS011;6123;48.864;9.200;2022-10-23T03:07:54;6.18;;;3.78;;
12118;SDS011;6123;48.864;9.200;2022-10-23T03:10:22;4.25;;;3.65;;
12118;SDS011;6123;48.864;9.200;2022-10-23T03:12:48;5.00;;;3.22;;
12118;SDS011;6123;48.864;9.200;2022-10-23T03:15:14;4.10;;;3.70;;
12118;SDS011;6123;48.864;9.200;2022-10-23T03:17:41;5.63;;;3.92;;
12118;SDS011;6123;48.864;9.200;2022-10-23T03:20:07;4.18;;;3.53;;
12118;SDS011;6123;48.864;9.200;2022-10-23T03:22:33;4.85;;;3.63;;
12118;SDS011;6123;48.864;9.200;2022-10-23T03:24:59;5.35;;;3.97;;
12118;SDS011;6123;48.864;9.200;2022-10-23T03:27:25;4.20;;;3.60;;
12118;SDS011;6123;48.864;9.200;2022-10-23T03:29:50;4.38;;;3.60;;
12118;SDS011;6123;48.864;9.200;2022-10-23T03:32:16;4.93;;;3.75;;
12118;SDS011;6123;48.864;9.200;2022-10-23T03:34:44;4.82;;;3.75;;
12118;SDS011;6123;48.864;9.200;2022-10-23T03:37:12;3.97;;;3.65;;
12118;SDS011;6123;48.864;9.200;2022-10-23T03:39:37;4.03;;;3.40;;
12118;SDS011;6123;48.864;9.200;2022-10-23T03:42:03;4.53;;;3.53;;
12118;SDS011;6123;48.864;9.200;2022-10-23T03:44:29;4.30;;;3.65;;
12118;SDS011;6123;48.864;9.200;2022-10-23T03:46:57;5.40;;;3.72;;
12118;SDS011;6123;48.864;9.200;2022-10-23T03:49:23;5.35;;;3.67;;
12118;SDS011;6123;48.864;9.200;2022-10-23T03:51:51;4.75;;;3.50;;
12118;SDS011;6123;48.864;9.200;2022-10-23T03:54:26;4.07;;;3.25;;
12118;SDS011;6123;48.864;9.200;2022-10-23T03:56:54;4.22;;;3.40;;
12118;SDS011;6123;48.864;9.200;2022-10-23T03:59:20;3.95;;;3.33;;
12118;SDS011;6123;48.864;9.200;2022-10-23T04:01:46;4.63;;;3.28;;
12118;SDS011;6123;48.864;9.200;2022-10-23T04:04:12;5.32;;;4.38;;
12118;SDS011;6123;48.864;9.200;2022-10-23T04:06:38;5.63;;;3.58;;
12118;SDS011;6123;48.864;9.200;2022-10-23T04:09:04;4.03;;;3.58;;
12118;SDS011;6123;48.864;9.200;2022-10-23T04:11:33;6.50;;;4.07;;
12118;SDS011;6123;48.864;9.200;2022-10-23T04:13:58;4.05;;;3.70;;
12118;SDS011;6123;48.864;9.200;2022-10-23T04:16:25;5.47;;;3.50;;
12118;SDS011;6123;48.864;9.200;2022-10-23T04:18:51;4.13;;;3.72;;
12118;SDS011;6123;48.864;9.200;2022-10-23T04:21:19;8.15;;;4.32;;
12118;SDS011;6123;48.864;9.200;2022-10-23T04:23:45;7.43;;;4.30;;
12118;SDS011;6123;48.864;9.200;2022-10-23T04:26:11;4.55;;;4.05;;
12118;SDS011;6123;48.864;9.200;2022-10-23T04:28:36;6.60;;;3.75;;
12118;SDS011;6123;48.864;9.200;2022-10-23T04:31:04;4.53;;;3.83;;
12118;SDS011;6123;48.864;9.200;2022-10-23T04:33:30;5.03;;;3.70;;
12118;SDS011;6123;48.864;9.200;2022-10-23T04:35:55;4.88;;;4.38;;
12118;SDS011;6123;48.864;9.200;2022-10-23T04:38:21;4.35;;;3.78;;
12118;SDS011;6123;48.864;9.200;2022-10-23T04:40:47;4.05;;;3.35;;
12118;SDS011;6123;48.864;9.200;2022-10-23T04:43:12;4.70;;;3.42;;
12118;SDS011;6123;48.864;9.200;2022-10-23T04:45:38;7.18;;;3.90;;
12118;SDS011;6123;48.864;9.200;2022-10-23T04:48:05;4.03;;;3.63;;
12118;SDS011;6123;48.864;9.200;2022-10-23T04:50:31;6.30;;;3.60;;
12118;SDS011;6123;48.864;9.200;2022-10-23T04:52:57;5.07;;;3.38;;
12118;SDS011;6123;48.864;9.200;2022-10-23T04:55:23;3.90;;;3.47;;
12118;SDS011;6123;48.864;9.200;2022-10-23T04:57:51;5.40;;;4.35;;
12118;SDS011;6123;48.864;9.200;2022-10-23T05:00:19;4.25;;;3.42;;
12118;SDS011;6123;48.864;9.200;2022-10-23T05:02:48;4.63;;;3.30;;
12118;SDS011;6123;48.864;9.200;2022-10-23T05:05:14;5.40;;;3.15;;
12118;SDS011;6123;48.864;9.200;2022-10-23T05:07:39;4.22;;;3.00;;
12118;SDS011;6123;48.864;9.200;2022-10-23T05:10:05;4.88;;;3.42;;
12118;SDS011;6123;48.864;9.200;2022-10-23T05:12:33;4.25;;;2.90;;
12118;SDS011;6123;48.864;9.200;2022-10-23T05:14:58;4.20;;;2.70;;
12118;SDS011;6123;48.864;9.200;2022-10-23T05:17:28;2.97;;;2.78;;
12118;SDS011;6123;48.864;9.200;2022-10-23T05:19:58;4.20;;;3.05;;
12118;SDS011;6123;48.864;9.200;2022-10-23T05:22:32;3.90;;;3.25;;
12118;SDS011;6123;48.864;9.200;2022-10-23T05:25:01;3.03;;;2.72;;
12118;SDS011;6123;48.864;9.200;2022-10-23T05:27:30;3.85;;;3.55;;
12118;SDS011;6123;48.864;9.200;2022-10-23T05:29:56;2.95;;;2.75;;
12118;SDS011;6123;48.864;9.200;2022-10-23T05:32:21;4.85;;;3.50;;
12118;SDS011;6123;48.864;9.200;2022-10-23T05:34:50;3.20;;;2.90;;
12118;SDS011;6123;48.864;9.200;2022-10-23T05:37:18;3.45;;;2.97;;
12118;SDS011;6123;48.864;9.200;2022-10-23T05:39:44;4.85;;;3.22;;
12118;SDS011;6123;48.864;9.200;2022-10-23T05:42:09;3.00;;;2.80;;
12118;SDS011;6123;48.864;9.200;2022-10-23T05:44:37;4.15;;;2.70;;
12118;SDS011;6123;48.864;9.200;2022-10-23T05:47:07;3.13;;;2.83;;
12118;SDS011;6123;48.864;9.200;2022-10-23T05:49:33;2.92;;;2.63;;
12118;SDS011;6123;48.864;9.200;2022-10-23T05:51:59;4.60;;;3.65;;
12118;SDS011;6123;48.864;9.200;2022-10-23T05:54:24;4.75;;;3.75;;
12118;SDS011;6123;48.864;9.200;2022-10-23T05:56:50;5.30;;;3.90;;
12118;SDS011;6123;48.864;9.200;2022-10-23T05:59:16;3.80;;;3.50;;
12118;SDS011;6123;48.864;9.200;2022-10-23T06:01:42;3.75;;;3.20;;
12118;SDS011;6123;48.864;9.200;2022-10-23T06:04:08;6.40;;;3.83;;
12118;SDS011;6123;48.864;9.200;2022-10-23T06:06:33;3.80;;;3.00;;
12118;SDS011;6123;48.864;9.200;2022-10-23T06:09:00;3.60;;;3.28;;
12118;SDS011;6123;48.864;9.200;2022-10-23T06:11:27;3.20;;;2.90;;
12118;SDS011;6123;48.864;9.200;2022-10-23T06:13:52;3.17;;;2.88;;
12118;SDS011;6123;48.864;9.200;2022-10-23T06:16:21;3.28;;;2.90;;
12118;SDS011;6123;48.864;9.200;2022-10-23T06:18:51;4.68;;;3.40;;
12118;SDS011;6123;48.864;9.200;2022-10-23T06:21:17;3.55;;;2.85;;
12118;SDS011;6123;48.864;9.200;2022-10-23T06:23:43;3.58;;;3.00;;
12118;SDS011;6123;48.864;9.200;2022-10-23T06:26:11;3.42;;;3.13;;
12118;SDS011;6123;48.864;9.200;2022-10-23T06:28:38;3.47;;;3.17;;
12118;SDS011;6123;48.864;9.200;2022-10-23T06:31:08;4.50;;;2.70;;
12118;SDS011;6123;48.864;9.200;2022-10-23T06:33:35;4.28;;;2.70;;
12118;SDS011;6123;48.864;9.200;2022-10-23T06:36:01;5.00;;;2.83;;
12118;SDS011;6123;48.864;9.200;2022-10-23T06:38:29;4.80;;;2.92;;
12118;SDS011;6123;48.864;9.200;2022-10-23T06:41:00;5.28;;;3.60;;
12118;SDS011;6123;48.864;9.200;2022-10-23T06:43:26;3.13;;;2.83;;
12118;SDS011;6123;48.864;9.200;2022-10-23T06:45:52;4.55;;;2.80;;
12118;SDS011;6123;48.864;9.200;2022-10-23T06:48:18;2.92;;;2.70;;
12118;SDS011;6123;48.864;9.200;2022-10-23T06:50:43;4.72;;;2.78;;
12118;SDS011;6123;48.864;9.200;2022-10-23T06:53:09;4.25;;;3.05;;
12118;SDS011;6123;48.864;9.200;2022-10-23T06:55:36;3.88;;;3.22;;
12118;SDS011;6123;48.864;9.200;2022-10-23T06:58:06;3.55;;;3.25;;
12118;SDS011;6123;48.864;9.200;2022-10-23T07:00:36;3.85;;;3.00;;
12118;SDS011;6123;48.864;9.200;2022-10-23T07:03:02;4.70;;;3.08;;
12118;SDS011;6123;48.864;9.200;2022-10-23T07:05:28;4.13;;;3.40;;
12118;SDS011;6123;48.864;9.200;2022-10-23T07:07:54;3.78;;;3.47;;
12118;SDS011;6123;48.864;9.200;2022-10-23T07:10:20;5.68;;;3.58;;
12118;SDS011;6123;48.864;9.200;2022-10-23T07:12:46;4.57;;;2.85;;
12118;SDS011;6123;48.864;9.200;2022-10-23T07:15:13;5.60;;;2.83;;
12118;SDS011;6123;48.864;9.200;2022-10-23T07:17:39;5.38;;;3.30;;
12118;SDS011;6123;48.864;9.200;2022-10-23T07:20:05;9.48;;;3.40;;
12118;SDS011;6123;48.864;9.200;2022-10-23T07:22:30;6.55;;;3.55;;
12118;SDS011;6123;48.864;9.200;2022-10-23T07:24:56;3.05;;;2.85;;
12118;SDS011;6123;48.864;9.200;2022-10-23T07:27:22;4.30;;;2.60;;
12118;SDS011;6123;48.864;9.200;2022-10-23T07:29:51;3.42;;;2.83;;
12118;SDS011;6123;48.864;9.200;2022-10-23T07:32:19;3.28;;;2.83;;
12118;SDS011;6123;48.864;9.200;2022-10-23T07:34:45;3.33;;;3.03;;
12118;SDS011;6123;48.864;9.200;2022-10-23T07:37:10;5.07;;;2.70;;
12118;SDS011;6123;48.864;9.200;2022-10-23T07:39:36;3.70;;;2.35;;
12118;SDS011;6123;48.864;9.200;2022-10-23T07:42:02;3.38;;;2.58;;
12118;SDS011;6123;48.864;9.200;2022-10-23T07:44:27;5.32;;;2.75;;
12118;SDS011;6123;48.864;9.200;2022-10-23T07:46:55;3.60;;;2.63;;
12118;SDS011;6123;48.864;9.200;2022-10-23T07:49:21;3.35;;;2.58;;
12118;SDS011;6123;48.864;9.200;2022-10-23T07:51:46;3.40;;;3.10;;
12118;SDS011;6123;48.864;9.200;2022-10-23T07:54:15;3.72;;;3.38;;
12118;SDS011;6123;48.864;9.200;2022-10-23T07:56:41;4.35;;;3.10;;
12118;SDS011;6123;48.864;9.200;2022-10-23T07:59:09;4.03;;;2.45;;
12118;SDS011;6123;48.864;9.200;2022-10-23T08:01:37;3.33;;;2.60;;
12118;SDS011;6123;48.864;9.200;2022-10-23T08:04:03;3.15;;;2.22;;
12118;SDS011;6123;48.864;9.200;2022-10-23T08:06:32;3.08;;;2.78;;
12118;SDS011;6123;48.864;9.200;2022-10-23T08:08:59;2.67;;;2.33;;
12118;SDS011;6123;48.864;9.200;2022-10-23T08:11:25;3.65;;;2.70;;
12118;SDS011;6123;48.864;9.200;2022-10-23T08:13:56;2.13;;;2.00;;
12118;SDS011;6123;48.864;9.200;2022-10-23T08:16:23;2.90;;;2.22;;
12118;SDS011;6123;48.864;9.200;2022-10-23T08:18:49;3.45;;;2.08;;
12118;SDS011;6123;48.864;9.200;2022-10-23T08:21:15;2.35;;;2.08;;
12118;SDS011;6123;48.864;9.200;2022-10-23T08:23:42;3.22;;;2.08;;
12118;SDS011;6123;48.864;9.200;2022-10-23T08:26:08;2.70;;;2.42;;
12118;SDS011;6123;48.864;9.200;2022-10-23T08:28:34;4.05;;;2.35;;
12118;SDS011;6123;48.864;9.200;2022-10-23T08:31:14;3.40;;;2.03;;
12118;SDS011;6123;48.864;9.200;2022-10-23T08:33:42;2.63;;;2.28;;
12118;SDS011;6123;48.864;9.200;2022-10-23T08:38:50;2.40;;;2.20;;
12118;SDS011;6123;48.864;9.200;2022-10-23T08:47:12;3.00;;;1.90;;
12118;SDS011;6123;48.864;9.200;2022-10-23T08:49:48;2.30;;;2.10;;
12118;SDS011;6123;48.864;9.200;2022-10-23T08:57:44;5.35;;;2.10;;
12118;SDS011;6123;48.864;9.200;2022-10-23T09:00:16;2.40;;;2.15;;
12118;SDS011;6123;48.864;9.200;2022-10-23T09:02:46;5.18;;;2.33;;
12118;SDS011;6123;48.864;9.200;2022-10-23T09:18:42;2.10;;;1.90;;
12118;SDS011;6123;48.864;9.200;2022-10-23T09:21:11;2.35;;;1.52;;
12118;SDS011;6123;48.864;9.200;2022-10-23T09:23:37;1.65;;;1.55;;
12118;SDS011;6123;48.864;9.200;2022-10-23T09:26:06;1.83;;;1.70;;
12118;SDS011;6123;48.864;9.200;2022-10-23T09:28:52;1.73;;;1.63;;
12118;SDS011;6123;48.864;9.200;2022-10-23T09:31:46;2.47;;;1.90;;
12118;SDS011;6123;48.864;9.200;2022-10-23T09:34:26;2.63;;;1.80;;
12118;SDS011;6123;48.864;9.200;2022-10-23T09:39:30;3.47;;;1.80;;
12118;SDS011;6123;48.864;9.200;2022-10-23T09:42:00;2.30;;;2.00;;
12118;SDS011;6123;48.864;9.200;2022-10-23T09:44:45;1.65;;;1.55;;
12118;SDS011;6123;48.864;9.200;2022-10-23T09:47:20;2.38;;;1.88;;
12118;SDS011;6123;48.864;9.200;2022-10-23T09:49:52;2.13;;;1.85;;
12118;SDS011;6123;48.864;9.200;2022-10-23T09:52:29;2.10;;;1.80;;
12118;SDS011;6123;48.864;9.200;2022-10-23T09:55:14;3.75;;;2.08;;
12118;SDS011;6123;48.864;9.200;2022-10-23T09:57:48;3.25;;;2.10;;
12118;SDS011;6123;48.864;9.200;2022-10-23T10:00:24;2.30;;;1.98;;
12118;SDS011;6123;48.864;9.200;2022-10-23T10:02:58;2.90;;;1.70;;
12118;SDS011;6123;48.864;9.200;2022-10-23T10:08:06;2.40;;;2.10;;
12118;SDS011;6123;48.864;9.200;2022-10-23T10:11:15;2.17;;;1.75;;
12118;SDS011;6123;48.864;9.200;2022-10-23T10:33:54;2.45;;;2.03;;
12118;SDS011;6123;48.864;9.200;2022-10-23T10:50:07;4.82;;;1.90;;
12118;SDS011;6123;48.864;9.200;2022-10-23T10:53:08;2.38;;;1.70;;
12118;SDS011;6123;48.864;9.200;2022-10-23T10:55:47;2.55;;;1.85;;
12118;SDS011;6123;48.864;9.200;2022-10-23T11:01:24;2.92;;;1.60;;
12118;SDS011;6123;48.864;9.200;2022-10-23T11:06:40;1.70;;;1.60;;
12118;SDS011;6123;48.864;9.200;2022-10-23T11:09:13;2.20;;;2.00;;
12118;SDS011;6123;48.864;9.200;2022-10-23T11:11:43;2.33;;;1.77;;
12118;SDS011;6123;48.864;9.200;2022-10-23T11:14:16;2.00;;;1.90;;
12118;SDS011;6123;48.864;9.200;2022-10-23T11:16:47;2.15;;;1.60;;
12118;SDS011;6123;48.864;9.200;2022-10-23T11:19:26;4.50;;;1.98;;
12118;SDS011;6123;48.864;9.200;2022-10-23T11:22:01;3.92;;;1.75;;
12118;SDS011;6123;48.864;9.200;2022-10-23T11:27:36;2.08;;;1.73;;
12118;SDS011;6123;48.864;9.200;2022-10-23T11:30:20;1.95;;;1.67;;
12118;SDS011;6123;48.864;9.200;2022-10-23T11:37:58;3.65;;;1.52;;
12118;SDS011;6123;48.864;9.200;2022-10-23T11:40:32;2.30;;;2.10;;
12118;SDS011;6123;48.864;9.200;2022-10-23T11:42:59;2.17;;;1.50;;
12118;SDS011;6123;48.864;9.200;2022-10-23T11:45:34;1.75;;;1.65;;
12118;SDS011;6123;48.864;9.200;2022-10-23T11:48:01;2.10;;;1.60;;
12118;SDS011;6123;48.864;9.200;2022-10-23T11:50:48;1.45;;;1.35;;
12118;SDS011;6123;48.864;9.200;2022-10-23T11:53:23;1.58;;;1.48;;
12118;SDS011;6123;48.864;9.200;2022-10-23T11:55:56;3.40;;;1.70;;
12118;SDS011;6123;48.864;9.200;2022-10-23T11:58:27;1.85;;;1.73;;
12118;SDS011;6123;48.864;9.200;2022-10-23T12:06:37;2.42;;;1.20;;
12118;SDS011;6123;48.864;9.200;2022-10-23T12:09:22;1.70;;;1.58;;
12118;SDS011;6123;48.864;9.200;2022-10-23T12:14:33;2.90;;;1.70;;
12118;SDS011;6123;48.864;9.200;2022-10-23T12:17:16;1.67;;;1.58;;
12118;SDS011;6123;48.864;9.200;2022-10-23T12:20:30;2.78;;;1.50;;
12118;SDS011;6123;48.864;9.200;2022-10-23T12:33:48;1.75;;;1.50;;
12118;SDS011;6123;48.864;9.200;2022-10-23T12:38:56;1.90;;;1.80;;
12118;SDS011;6123;48.864;9.200;2022-10-23T12:41:26;1.85;;;1.75;;
12118;SDS011;6123;48.864;9.200;2022-10-23T12:44:04;1.65;;;1.55;;
12118;SDS011;6123;48.864;9.200;2022-10-23T12:46:41;4.68;;;1.77;;
12118;SDS011;6123;48.864;9.200;2022-10-23T12:49:17;1.63;;;1.52;;
12118;SDS011;6123;48.864;9.200;2022-10-23T12:51:53;1.70;;;1.58;;
12118;SDS011;6123;48.864;9.200;2022-10-23T12:54:23;1.85;;;1.70;;
12118;SDS011;6123;48.864;9.200;2022-10-23T12:56:49;3.70;;;1.60;;
12118;SDS011;6123;48.864;9.200;2022-10-23T12:59:16;3.00;;;1.73;;
12118;SDS011;6123;48.864;9.200;2022-10-23T13:01:44;2.50;;;1.85;;
12118;SDS011;6123;48.864;9.200;2022-10-23T13:06:56;1.88;;;1.77;;
12118;SDS011;6123;48.864;9.200;2022-10-23T13:09:28;2.20;;;1.73;;
12118;SDS011;6123;48.864;9.200;2022-10-23T13:11:57;2.75;;;2.05;;
12118;SDS011;6123;48.864;9.200;2022-10-23T13:17:19;2.03;;;1.88;;
12118;SDS011;6123;48.864;9.200;2022-10-23T13:19:47;4.82;;;1.70;;
12118;SDS011;6123;48.864;9.200;2022-10-23T13:22:20;2.63;;;2.22;;
12118;SDS011;6123;48.864;9.200;2022-10-23T13:24:46;2.00;;;1.73;;
12118;SDS011;6123;48.864;9.200;2022-10-23T13:27:25;1.90;;;1.80;;
12118;SDS011;6123;48.864;9.200;2022-10-23T13:29:57;4.25;;;2.78;;
12118;SDS011;6123;48.864;9.200;2022-10-23T13:32:27;5.10;;;4.70;;
12118;SDS011;6123;48.864;9.200;2022-10-23T13:34:57;5.93;;;5.43;;
12118;SDS011;6123;48.864;9.200;2022-10-23T13:37:25;11.75;;;10.95;;
12118;SDS011;6123;48.864;9.200;2022-10-23T13:39:59;5.68;;;4.55;;
12118;SDS011;6123;48.864;9.200;2022-10-23T13:42:30;2.15;;;1.90;;
12118;SDS011;6123;48.864;9.200;2022-10-23T13:44:55;2.33;;;2.00;;
12118;SDS011;6123;48.864;9.200;2022-10-23T13:47:21;3.78;;;1.83;;
12118;SDS011;6123;48.864;9.200;2022-10-23T13:49:47;2.40;;;1.70;;
12118;SDS011;6123;48.864;9.200;2022-10-23T13:52:16;1.70;;;1.60;;
12118;SDS011;6123;48.864;9.200;2022-10-23T13:54:44;4.20;;;1.90;;
12118;SDS011;6123;48.864;9.200;2022-10-23T13:57:10;1.60;;;1.50;;
12118;SDS011;6123;48.864;9.200;2022-10-23T13:59:41;3.70;;;1.80;;
12118;SDS011;6123;48.864;9.200;2022-10-23T14:02:14;2.78;;;1.80;;
12118;SDS011;6123;48.864;9.200;2022-10-23T14:04:49;1.88;;;1.70;;
12118;SDS011;6123;48.864;9.200;2022-10-23T14:07:16;3.58;;;1.83;;
12118;SDS011;6123;48.864;9.200;2022-10-23T14:09:42;3.13;;;1.95;;
12118;SDS011;6123;48.864;9.200;2022-10-23T14:12:08;2.42;;;1.92;;
12118;SDS011;6123;48.864;9.200;2022-10-23T14:14:34;3.47;;;2.22;;
12118;SDS011;6123;48.864;9.200;2022-10-23T14:16:59;2.00;;;1.80;;
12118;SDS011;6123;48.864;9.200;2022-10-23T14:19:25;2.42;;;2.22;;
12118;SDS011;6123;48.864;9.200;2022-10-23T14:21:50;2.20;;;1.90;;
12118;SDS011;6123;48.864;9.200;2022-10-23T14:24:16;2.53;;;2.05;;
12118;SDS011;6123;48.864;9.200;2022-10-23T14:26:41;2.45;;;2.25;;
12118;SDS011;6123;48.864;9.200;2022-10-23T14:29:11;2.40;;;2.20;;
12118;SDS011;6123;48.864;9.200;2022-10-23T14:31:37;2.92;;;1.77;;
12118;SDS011;6123;48.864;9.200;2022-10-23T14:34:05;2.67;;;1.88;;
12118;SDS011;6123;48.864;9.200;2022-10-23T14:36:31;4.43;;;2.28;;
12118;SDS011;6123;48.864;9.200;2022-10-23T14:38:59;2.05;;;1.85;;
12118;SDS011;6123;48.864;9.200;2022-10-23T14:41:25;2.10;;;1.95;;
12118;SDS011;6123;48.864;9.200;2022-10-23T14:43:50;2.22;;;1.95;;
12118;SDS011;6123;48.864;9.200;2022-10-23T14:46:19;2.20;;;2.00;;
12118;SDS011;6123;48.864;9.200;2022-10-23T14:48:53;2.75;;;2.55;;
12118;SDS011;6123;48.864;9.200;2022-10-23T14:53:53;2.55;;;2.30;;
12118;SDS011;6123;48.864;9.200;2022-10-23T14:56:20;2.75;;;2.28;;
12118;SDS011;6123;48.864;9.200;2022-10-23T14:58:47;3.60;;;2.47;;
12118;SDS011;6123;48.864;9.200;2022-10-23T15:01:13;2.17;;;2.08;;
12118;SDS011;6123;48.864;9.200;2022-10-23T15:03:39;2.90;;;2.70;;
12118;SDS011;6123;48.864;9.200;2022-10-23T15:06:04;3.75;;;2.45;;
12118;SDS011;6123;48.864;9.200;2022-10-23T15:08:31;3.30;;;2.17;;
12118;SDS011;6123;48.864;9.200;2022-10-23T15:11:00;2.88;;;2.17;;
12118;SDS011;6123;48.864;9.200;2022-10-23T15:13:27;2.00;;;1.90;;
12118;SDS011;6123;48.864;9.200;2022-10-23T15:16:00;2.33;;;2.13;;
12118;SDS011;6123;48.864;9.200;2022-10-23T15:18:30;2.20;;;1.95;;
12118;SDS011;6123;48.864;9.200;2022-10-23T15:20:58;3.25;;;2.10;;
12118;SDS011;6123;48.864;9.200;2022-10-23T15:23:24;2.55;;;1.90;;
12118;SDS011;6123;48.864;9.200;2022-10-23T15:25:54;3.92;;;2.10;;
12118;SDS011;6123;48.864;9.200;2022-10-23T15:28:25;3.17;;;1.85;;
12118;SDS011;6123;48.864;9.200;2022-10-23T15:30:51;2.10;;;1.90;;
12118;SDS011;6123;48.864;9.200;2022-10-23T15:33:17;5.05;;;2.05;;
12118;SDS011;6123;48.864;9.200;2022-10-23T15:35:45;2.13;;;1.95;;
12118;SDS011;6123;48.864;9.200;2022-10-23T15:38:13;2.83;;;2.17;;
12118;SDS011;6123;48.864;9.200;2022-10-23T15:40:41;2.28;;;2.05;;
12118;SDS011;6123;48.864;9.200;2022-10-23T15:43:09;5.43;;;2.40;;
12118;SDS011;6123;48.864;9.200;2022-10-23T15:45:35;2.50;;;2.30;;
12118;SDS011;6123;48.864;9.200;2022-10-23T15:48:01;3.33;;;2.17;;
12118;SDS011;6123;48.864;9.200;2022-10-23T15:50:27;2.65;;;2.05;;
12118;SDS011;6123;48.864;9.200;2022-10-23T15:52:52;2.72;;;2.33;;
12118;SDS011;6123;48.864;9.200;2022-10-23T15:55:18;7.28;;;2.60;;
12118;SDS011;6123;48.864;9.200;2022-10-23T15:57:44;2.53;;;2.33;;
12118;SDS011;6123;48.864;9.200;2022-10-23T16:00:11;2.50;;;2.30;;
12118;SDS011;6123;48.864;9.200;2022-10-23T16:02:37;4.10;;;2.75;;
12118;SDS011;6123;48.864;9.200;2022-10-23T16:05:03;4.93;;;3.72;;
12118;SDS011;6123;48.864;9.200;2022-10-23T16:07:29;3.17;;;2.88;;
12118;SDS011;6123;48.864;9.200;2022-10-23T16:09:57;4.45;;;2.72;;
12118;SDS011;6123;48.864;9.200;2022-10-23T16:12:23;3.95;;;2.60;;
12118;SDS011;6123;48.864;9.200;2022-10-23T16:14:49;4.82;;;4.43;;
12118;SDS011;6123;48.864;9.200;2022-10-23T16:17:15;3.42;;;3.13;;
12118;SDS011;6123;48.864;9.200;2022-10-23T16:19:45;4.13;;;2.67;;
12118;SDS011;6123;48.864;9.200;2022-10-23T16:22:11;2.63;;;2.42;;
12118;SDS011;6123;48.864;9.200;2022-10-23T16:24:37;3.75;;;2.65;;
12118;SDS011;6123;48.864;9.200;2022-10-23T16:27:03;3.33;;;2.65;;
12118;SDS011;6123;48.864;9.200;2022-10-23T16:29:29;3.50;;;3.20;;
12118;SDS011;6123;48.864;9.200;2022-10-23T16:31:55;4.10;;;3.10;;
12118;SDS011;6123;48.864;9.200;2022-10-23T16:34:24;3.22;;;2.83;;
12118;SDS011;6123;48.864;9.200;2022-10-23T16:36:50;4.07;;;2.83;;
12118;SDS011;6123;48.864;9.200;2022-10-23T16:39:18;3.42;;;3.13;;
12118;SDS011;6123;48.864;9.200;2022-10-23T16:41:44;4.03;;;2.85;;
12118;SDS011;6123;48.864;9.200;2022-10-23T16:44:10;3.20;;;2.90;;
12118;SDS011;6123;48.864;9.200;2022-10-23T16:46:36;2.92;;;2.65;;
12118;SDS011;6123;48.864;9.200;2022-10-23T16:49:03;3.72;;;2.78;;
12118;SDS011;6123;48.864;9.200;2022-10-23T16:51:32;3.50;;;3.20;;
12118;SDS011;6123;48.864;9.200;2022-10-23T16:53:58;5.47;;;3.42;;
12118;SDS011;6123;48.864;9.200;2022-10-23T16:56:25;4.35;;;2.80;;
12118;SDS011;6123;48.864;9.200;2022-10-23T16:58:52;3.10;;;2.80;;
12118;SDS011;6123;48.864;9.200;2022-10-23T17:01:20;2.85;;;2.53;;
12118;SDS011;6123;48.864;9.200;2022-10-23T17:03:47;2.92;;;2.70;;
12118;SDS011;6123;48.864;9.200;2022-10-23T17:06:26;2.85;;;2.65;;
12118;SDS011;6123;48.864;9.200;2022-10-23T17:08:54;3.85;;;2.80;;
12118;SDS011;6123;48.864;9.200;2022-10-23T17:11:22;3.42;;;3.05;;
12118;SDS011;6123;48.864;9.200;2022-10-23T17:13:54;4.47;;;2.90;;
12118;SDS011;6123;48.864;9.200;2022-10-23T17:16:24;4.82;;;3.05;;
12118;SDS011;6123;48.864;9.200;2022-10-23T17:18:53;6.13;;;3.05;;
12118;SDS011;6123;48.864;9.200;2022-10-23T17:21:19;4.43;;;2.95;;
12118;SDS011;6123;48.864;9.200;2022-10-23T17:23:51;5.45;;;3.03;;
12118;SDS011;6123;48.864;9.200;2022-10-23T17:26:17;3.17;;;2.90;;
12118;SDS011;6123;48.864;9.200;2022-10-23T17:28:44;4.93;;;2.95;;
12118;SDS011;6123;48.864;9.200;2022-10-23T17:31:13;5.32;;;3.10;;
12118;SDS011;6123;48.864;9.200;2022-10-23T17:33:43;4.15;;;3.25;;
12118;SDS011;6123;48.864;9.200;2022-10-23T17:36:13;2.90;;;2.67;;
12118;SDS011;6123;48.864;9.200;2022-10-23T17:38:40;3.63;;;3.08;;
12118;SDS011;6123;48.864;9.200;2022-10-23T17:41:12;3.60;;;3.30;;
12118;SDS011;6123;48.864;9.200;2022-10-23T17:43:41;3.75;;;3.00;;
12118;SDS011;6123;48.864;9.200;2022-10-23T17:46:07;3.33;;;3.03;;